createdAt,value
2018-01-16T00:00:54.424Z,52.43
2018-01-16T00:01:56.919Z,52.46
2018-01-16T00:02:59.384Z,52.50
2018-01-16T00:04:01.847Z,52.54
2018-01-16T00:05:04.311Z,52.61
2018-01-16T00:06:06.776Z,52.62
2018-01-16T00:07:09.264Z,52.60
2018-01-16T00:08:11.718Z,52.65
2018-01-16T00:09:14.183Z,52.69
2018-01-16T00:10:16.652Z,52.78
2018-01-16T00:11:19.120Z,52.85
2018-01-16T00:12:21.637Z,52.87
2018-01-16T00:13:24.087Z,52.97
2018-01-16T00:14:26.558Z,53.03
2018-01-16T00:15:29.054Z,53.10
2018-01-16T00:16:31.515Z,53.12
2018-01-16T00:17:33.999Z,53.09
2018-01-16T00:18:36.464Z,53.10
2018-01-16T00:19:38.938Z,53.12
2018-01-16T00:20:41.398Z,53.15
2018-01-16T00:21:43.869Z,53.23
2018-01-16T00:22:46.342Z,53.23
2018-01-16T00:23:48.796Z,53.30
2018-01-16T00:24:51.264Z,53.36
2018-01-16T00:25:53.728Z,53.38
2018-01-16T00:26:56.196Z,53.51
2018-01-16T00:27:58.662Z,53.59
2018-01-16T00:29:01.130Z,53.68
2018-01-16T00:30:03.585Z,53.68
2018-01-16T00:31:06.038Z,53.77
2018-01-16T00:32:08.500Z,53.86
2018-01-16T00:33:11.009Z,53.89
2018-01-16T00:34:13.471Z,53.95
2018-01-16T00:35:15.922Z,53.94
2018-01-16T00:36:18.388Z,53.97
2018-01-16T00:37:20.838Z,53.96
2018-01-16T00:38:23.305Z,54.00
2018-01-16T00:39:25.785Z,54.06
2018-01-16T00:40:28.233Z,54.03
2018-01-16T00:41:30.763Z,54.02
2018-01-16T00:42:33.236Z,54.06
2018-01-16T00:43:35.706Z,54.08
2018-01-16T00:44:38.157Z,54.06
2018-01-16T00:45:40.628Z,54.14
2018-01-16T00:46:43.154Z,54.17
2018-01-16T00:47:45.617Z,54.22
2018-01-16T00:48:48.104Z,54.27
2018-01-16T00:49:50.573Z,54.21
2018-01-16T00:50:53.039Z,54.21
2018-01-16T00:51:55.490Z,54.33
2018-01-16T00:52:57.945Z,54.44
2018-01-16T00:54:00.450Z,54.44
2018-01-16T00:55:02.915Z,54.42
2018-01-16T00:56:05.379Z,54.43
2018-01-16T00:57:07.833Z,54.49
2018-01-16T00:58:10.287Z,54.55
2018-01-16T00:59:12.758Z,54.63
2018-01-16T01:00:15.227Z,54.72
2018-01-16T01:01:17.695Z,54.73
2018-01-16T01:02:20.156Z,54.74
2018-01-16T01:03:22.669Z,54.76
2018-01-16T01:04:25.133Z,54.88
2018-01-16T01:05:27.586Z,55.13
2018-01-16T01:06:30.052Z,54.93
2018-01-16T01:07:32.515Z,54.67
2018-01-16T01:08:34.969Z,54.75
2018-01-16T01:09:37.446Z,54.63
2018-01-16T01:10:39.898Z,54.57
2018-01-16T01:11:42.349Z,54.54
2018-01-16T01:12:44.811Z,54.30
2018-01-16T01:13:47.268Z,54.24
2018-01-16T01:14:49.741Z,54.15
2018-01-16T01:15:52.190Z,54.11
2018-01-16T01:16:54.645Z,54.06
2018-01-16T01:17:57.112Z,53.97
2018-01-16T01:18:59.577Z,53.95
2018-01-16T01:20:02.069Z,53.95
2018-01-16T01:21:04.522Z,53.91
2018-01-16T01:22:06.992Z,54.08
2018-01-16T01:23:09.454Z,53.93
2018-01-16T01:24:11.910Z,53.99
2018-01-16T01:25:14.404Z,54.07
2018-01-16T01:26:16.914Z,54.29
2018-01-16T01:27:19.366Z,54.15
2018-01-16T01:28:21.840Z,54.24
2018-01-16T01:29:24.290Z,54.44
2018-01-16T01:30:26.767Z,54.58
2018-01-16T01:31:29.240Z,54.55
2018-01-16T01:32:31.697Z,54.82
2018-01-16T01:33:34.150Z,54.51
2018-01-16T01:34:36.619Z,54.41
2018-01-16T01:35:39.094Z,54.34
2018-01-16T01:36:41.546Z,54.38
2018-01-16T01:37:44.040Z,54.45
2018-01-16T01:38:46.506Z,54.40
2018-01-16T01:39:48.982Z,54.44
2018-01-16T01:40:51.467Z,54.71
2018-01-16T01:41:53.937Z,54.89
2018-01-16T01:42:56.389Z,55.11
2018-01-16T01:43:58.852Z,55.09
2018-01-16T01:45:01.303Z,54.96
2018-01-16T01:46:03.791Z,55.10
2018-01-16T01:47:06.284Z,55.29
2018-01-16T01:48:08.771Z,55.35
2018-01-16T01:49:13.098Z,55.44
2018-01-16T01:50:15.549Z,55.42
2018-01-16T01:51:18.037Z,55.59
2018-01-16T01:52:20.490Z,55.51
2018-01-16T01:53:22.952Z,55.58
2018-01-16T01:54:25.406Z,55.68
2018-01-16T01:55:27.862Z,55.68
2018-01-16T01:56:30.347Z,55.80
2018-01-16T01:57:32.932Z,55.79
2018-01-16T01:58:35.399Z,55.81
2018-01-16T01:59:37.858Z,55.89
2018-01-16T02:00:40.325Z,55.98
2018-01-16T02:01:42.790Z,55.98
2018-01-16T02:02:45.241Z,56.04
2018-01-16T02:03:47.722Z,55.99
2018-01-16T02:04:50.174Z,55.76
2018-01-16T02:05:52.636Z,56.05
2018-01-16T02:06:55.109Z,56.11
2018-01-16T02:07:57.577Z,56.18
2018-01-16T02:09:00.054Z,56.09
2018-01-16T02:10:02.509Z,56.09
2018-01-16T02:11:04.961Z,56.15
2018-01-16T02:12:07.478Z,55.93
2018-01-16T02:13:09.930Z,55.88
2018-01-16T02:14:12.395Z,55.96
2018-01-16T02:15:14.860Z,55.73
2018-01-16T02:16:17.310Z,55.77
2018-01-16T02:17:19.799Z,55.57
2018-01-16T02:18:22.264Z,55.63
2018-01-16T02:19:24.717Z,55.44
2018-01-16T02:20:27.170Z,55.61
2018-01-16T02:21:29.622Z,55.68
2018-01-16T02:22:32.112Z,55.62
2018-01-16T02:23:34.585Z,55.75
2018-01-16T02:24:37.060Z,55.86
2018-01-16T02:25:39.518Z,55.90
2018-01-16T02:26:41.978Z,55.85
2018-01-16T02:27:44.469Z,55.83
2018-01-16T02:28:46.935Z,55.98
2018-01-16T02:29:49.404Z,55.91
2018-01-16T02:30:51.866Z,55.80
2018-01-16T02:31:54.344Z,55.79
2018-01-16T02:32:56.841Z,55.78
2018-01-16T02:33:59.306Z,55.82
2018-01-16T02:35:01.762Z,55.76
2018-01-16T02:36:04.236Z,56.04
2018-01-16T02:37:06.686Z,55.79
2018-01-16T02:38:09.317Z,55.95
2018-01-16T02:39:11.788Z,55.81
2018-01-16T02:40:14.256Z,56.05
2018-01-16T02:41:16.720Z,56.06
2018-01-16T02:42:19.189Z,55.98
2018-01-16T02:43:21.676Z,56.04
2018-01-16T02:44:24.137Z,56.40
2018-01-16T02:45:26.608Z,56.40
2018-01-16T02:46:29.135Z,56.92
2018-01-16T02:47:31.585Z,56.66
2018-01-16T02:48:34.054Z,56.75
2018-01-16T02:49:36.510Z,56.84
2018-01-16T02:50:38.987Z,56.76
2018-01-16T02:51:41.452Z,56.72
2018-01-16T02:52:43.916Z,57.04
2018-01-16T02:53:46.385Z,57.14
2018-01-16T02:54:48.837Z,56.98
2018-01-16T02:55:51.284Z,57.07
2018-01-16T02:56:53.733Z,57.17
2018-01-16T02:57:56.195Z,56.54
2018-01-16T02:58:58.679Z,56.53
2018-01-16T03:00:01.133Z,56.78
2018-01-16T03:01:03.604Z,56.63
2018-01-16T03:02:06.080Z,56.49
2018-01-16T03:03:08.537Z,56.42
2018-01-16T03:04:11.024Z,56.30
2018-01-16T03:05:13.492Z,56.17
2018-01-16T03:06:15.945Z,55.95
2018-01-16T03:07:18.402Z,55.88
2018-01-16T03:08:20.854Z,55.85
2018-01-16T03:09:23.334Z,55.85
2018-01-16T03:10:25.791Z,55.78
2018-01-16T03:11:28.259Z,55.69
2018-01-16T03:12:30.712Z,55.76
2018-01-16T03:13:33.165Z,55.53
2018-01-16T03:14:35.652Z,55.56
2018-01-16T03:15:38.128Z,55.60
2018-01-16T03:16:40.588Z,55.58
2018-01-16T03:17:43.056Z,55.44
2018-01-16T03:18:45.550Z,55.56
2018-01-16T03:19:48.035Z,55.57
2018-01-16T03:20:50.486Z,55.63
2018-01-16T03:21:52.951Z,55.61
2018-01-16T03:22:55.420Z,55.69
2018-01-16T03:23:57.877Z,55.74
2018-01-16T03:25:00.360Z,55.79
2018-01-16T03:26:02.809Z,55.80
2018-01-16T03:27:05.279Z,55.90
2018-01-16T03:28:07.737Z,56.02
2018-01-16T03:29:10.212Z,56.00
2018-01-16T03:30:12.692Z,55.78
2018-01-16T03:31:15.160Z,55.90
2018-01-16T03:32:17.614Z,55.94
2018-01-16T03:33:20.062Z,56.07
2018-01-16T03:34:22.531Z,55.83
2018-01-16T03:35:25.076Z,55.80
2018-01-16T03:36:27.538Z,55.73
2018-01-16T03:37:30.009Z,55.80
2018-01-16T03:38:32.523Z,55.85
2018-01-16T03:39:35.010Z,55.88
2018-01-16T03:40:37.518Z,55.87
2018-01-16T03:41:39.983Z,56.14
2018-01-16T03:42:42.447Z,56.35
2018-01-16T03:43:44.897Z,56.56
2018-01-16T03:44:47.368Z,56.62
2018-01-16T03:45:49.853Z,56.75
2018-01-16T03:46:52.335Z,56.97
2018-01-16T03:47:54.800Z,56.80
2018-01-16T03:48:57.249Z,56.79
2018-01-16T03:49:59.704Z,56.78
2018-01-16T03:51:02.207Z,56.68
2018-01-16T03:52:04.658Z,56.57
2018-01-16T03:53:07.151Z,56.52
2018-01-16T03:54:09.602Z,56.46
2018-01-16T03:55:12.072Z,56.41
2018-01-16T03:56:14.555Z,56.31
2018-01-16T03:57:17.005Z,56.06
2018-01-16T03:58:19.468Z,55.97
2018-01-16T03:59:21.918Z,56.04
2018-01-16T04:00:24.395Z,56.04
2018-01-16T04:01:26.869Z,55.97
2018-01-16T04:02:29.324Z,55.91
2018-01-16T04:03:31.789Z,55.88
2018-01-16T04:04:34.242Z,55.89
2018-01-16T04:05:36.716Z,55.89
2018-01-16T04:06:39.255Z,55.90
2018-01-16T04:07:41.709Z,55.94
2018-01-16T04:08:44.161Z,55.93
2018-01-16T04:09:46.633Z,56.00
2018-01-16T04:10:49.089Z,56.11
2018-01-16T04:11:51.576Z,56.15
2018-01-16T04:12:54.027Z,56.20
2018-01-16T04:13:56.496Z,56.40
2018-01-16T04:14:58.963Z,56.32
2018-01-16T04:16:01.443Z,56.39
2018-01-16T04:17:03.930Z,56.34
2018-01-16T04:18:06.381Z,56.24
2018-01-16T04:19:08.829Z,56.34
2018-01-16T04:20:11.294Z,56.42
2018-01-16T04:21:13.759Z,56.43
2018-01-16T04:22:16.233Z,56.36
2018-01-16T04:23:18.682Z,56.33
2018-01-16T04:24:21.143Z,56.48
2018-01-16T04:25:23.591Z,56.33
2018-01-16T04:26:26.054Z,56.40
2018-01-16T04:27:28.538Z,56.47
2018-01-16T04:28:30.989Z,57.13
2018-01-16T04:29:33.438Z,56.73
2018-01-16T04:30:35.890Z,56.56
2018-01-16T04:31:38.407Z,56.63
2018-01-16T04:32:40.907Z,56.91
2018-01-16T04:33:43.355Z,57.01
2018-01-16T04:34:45.805Z,56.94
2018-01-16T04:35:48.257Z,56.96
2018-01-16T04:36:50.703Z,56.92
2018-01-16T04:37:53.174Z,56.82
2018-01-16T04:38:55.629Z,56.79
2018-01-16T04:39:58.086Z,56.72
2018-01-16T04:41:00.545Z,56.65
2018-01-16T04:42:02.993Z,56.55
2018-01-16T04:43:05.484Z,56.55
2018-01-16T04:44:07.964Z,56.42
2018-01-16T04:45:10.418Z,56.50
2018-01-16T04:46:12.890Z,56.39
2018-01-16T04:47:15.341Z,56.43
2018-01-16T04:48:17.831Z,56.60
2018-01-16T04:49:20.283Z,56.52
2018-01-16T04:50:22.748Z,56.62
2018-01-16T04:51:25.197Z,56.58
2018-01-16T04:52:27.660Z,56.77
2018-01-16T04:53:30.147Z,56.61
2018-01-16T04:54:32.602Z,56.65
2018-01-16T04:55:35.068Z,56.71
2018-01-16T04:56:37.531Z,56.73
2018-01-16T04:57:39.981Z,56.73
2018-01-16T04:58:42.468Z,56.79
2018-01-16T04:59:44.981Z,56.86
2018-01-16T05:00:47.449Z,56.65
2018-01-16T05:01:49.912Z,56.80
2018-01-16T05:02:52.366Z,57.04
2018-01-16T05:03:54.840Z,57.00
2018-01-16T05:04:57.294Z,57.06
2018-01-16T05:05:59.756Z,57.14
2018-01-16T05:07:02.205Z,56.85
2018-01-16T05:08:04.668Z,57.39
2018-01-16T05:09:07.152Z,57.21
2018-01-16T05:10:09.700Z,57.32
2018-01-16T05:11:12.149Z,57.18
2018-01-16T05:12:14.602Z,57.15
2018-01-16T05:13:17.059Z,56.96
2018-01-16T05:14:19.533Z,56.83
2018-01-16T05:15:21.996Z,56.68
2018-01-16T05:16:24.460Z,56.51
2018-01-16T05:17:27.009Z,56.47
2018-01-16T05:18:29.458Z,56.49
2018-01-16T05:19:31.942Z,56.45
2018-01-16T05:20:34.416Z,56.41
2018-01-16T05:21:36.881Z,56.60
2018-01-16T05:22:39.382Z,56.42
2018-01-16T05:23:41.844Z,56.39
2018-01-16T05:24:44.328Z,56.44
2018-01-16T05:25:46.777Z,56.47
2018-01-16T05:26:49.247Z,56.49
2018-01-16T05:27:51.746Z,56.51
2018-01-16T05:28:54.199Z,56.55
2018-01-16T05:29:56.695Z,56.58
2018-01-16T05:30:59.145Z,56.63
2018-01-16T05:32:01.603Z,56.78
2018-01-16T05:33:04.062Z,56.74
2018-01-16T05:34:06.517Z,56.78
2018-01-16T05:35:09.000Z,56.79
2018-01-16T05:36:11.450Z,56.92
2018-01-16T05:37:13.912Z,56.90
2018-01-16T05:38:16.363Z,57.03
2018-01-16T05:39:18.813Z,56.83
2018-01-16T05:40:21.298Z,56.79
2018-01-16T05:41:23.764Z,56.95
2018-01-16T05:42:26.228Z,57.15
2018-01-16T05:43:28.674Z,56.95
2018-01-16T05:44:31.150Z,56.98
2018-01-16T05:45:33.631Z,57.04
2018-01-16T05:46:36.100Z,57.12
2018-01-16T05:47:38.545Z,57.39
2018-01-16T05:48:41.011Z,57.18
2018-01-16T05:49:43.475Z,57.38
2018-01-16T05:50:45.961Z,57.36
2018-01-16T05:51:48.410Z,57.25
2018-01-16T05:52:50.862Z,57.19
2018-01-16T05:53:53.371Z,57.09
2018-01-16T05:54:55.832Z,57.06
2018-01-16T05:55:58.306Z,57.07
2018-01-16T05:57:00.762Z,57.15
2018-01-16T05:58:03.229Z,57.20
2018-01-16T05:59:05.695Z,56.93
2018-01-16T06:00:08.160Z,57.06
2018-01-16T06:01:10.686Z,56.97
2018-01-16T06:02:13.141Z,55.84
2018-01-16T06:03:15.633Z,53.11
2018-01-16T06:04:18.094Z,52.51
2018-01-16T06:05:20.575Z,52.15
2018-01-16T06:06:23.046Z,51.85
2018-01-16T06:07:25.497Z,51.45
2018-01-16T06:08:27.950Z,51.45
2018-01-16T06:09:30.458Z,51.17
2018-01-16T06:10:32.910Z,50.91
2018-01-16T06:11:35.382Z,50.71
2018-01-16T06:12:37.834Z,50.44
2018-01-16T06:13:40.290Z,50.16
2018-01-16T06:14:42.742Z,50.21
2018-01-16T06:15:45.211Z,50.14
2018-01-16T06:16:47.708Z,49.92
2018-01-16T06:17:50.183Z,50.17
2018-01-16T06:18:52.633Z,49.71
2018-01-16T06:19:55.097Z,49.52
2018-01-16T06:20:57.578Z,49.40
2018-01-16T06:22:00.071Z,50.00
2018-01-16T06:23:02.537Z,49.44
2018-01-16T06:24:04.998Z,49.37
2018-01-16T06:25:07.483Z,49.23
2018-01-16T06:26:09.934Z,49.36
2018-01-16T06:27:12.434Z,49.44
2018-01-16T06:28:14.890Z,50.05
2018-01-16T06:29:17.339Z,51.10
2018-01-16T06:30:19.794Z,51.65
2018-01-16T06:31:22.256Z,51.50
2018-01-16T06:32:24.741Z,51.79
2018-01-16T06:33:27.220Z,51.67
2018-01-16T06:34:29.835Z,51.70
2018-01-16T06:35:32.309Z,51.50
2018-01-16T06:36:34.777Z,51.48
2018-01-16T06:37:37.250Z,51.26
2018-01-16T06:38:39.704Z,51.37
2018-01-16T06:39:42.157Z,50.75
2018-01-16T06:40:44.611Z,51.04
2018-01-16T06:41:47.152Z,51.26
2018-01-16T06:42:49.629Z,49.81
2018-01-16T06:43:52.082Z,49.20
2018-01-16T06:44:54.534Z,48.99
2018-01-16T06:45:57.002Z,48.70
2018-01-16T06:46:59.455Z,48.55
2018-01-16T06:48:01.940Z,48.64
2018-01-16T06:49:04.390Z,48.46
2018-01-16T06:50:06.856Z,48.41
2018-01-16T06:51:09.384Z,48.40
2018-01-16T06:52:11.857Z,48.40
2018-01-16T06:53:14.339Z,48.54
2018-01-16T06:54:16.800Z,49.00
2018-01-16T06:55:19.265Z,49.56
2018-01-16T06:56:21.713Z,49.83
2018-01-16T06:57:24.184Z,49.73
2018-01-16T06:58:26.657Z,49.65
2018-01-16T06:59:29.106Z,49.53
2018-01-16T07:00:31.558Z,49.41
2018-01-16T07:01:34.017Z,49.29
2018-01-16T07:02:36.479Z,49.25
2018-01-16T07:03:38.948Z,49.21
2018-01-16T07:04:41.409Z,49.21
2018-01-16T07:05:43.882Z,49.24
2018-01-16T07:06:46.335Z,49.12
2018-01-16T07:07:48.789Z,48.86
2018-01-16T07:08:51.276Z,48.78
2018-01-16T07:09:53.725Z,48.79
2018-01-16T07:10:56.192Z,48.72
2018-01-16T07:11:58.659Z,48.67
2018-01-16T07:13:01.124Z,48.59
2018-01-16T07:14:03.622Z,48.55
2018-01-16T07:15:06.349Z,48.47
2018-01-16T07:16:08.806Z,48.30
2018-01-16T07:17:11.335Z,48.28
2018-01-16T07:18:13.793Z,48.16
2018-01-16T07:19:16.277Z,48.19
2018-01-16T07:20:18.740Z,48.23
2018-01-16T07:21:21.198Z,48.07
2018-01-16T07:22:23.672Z,48.02
2018-01-16T07:23:26.123Z,48.03
2018-01-16T07:24:29.205Z,48.24
2018-01-16T07:25:31.660Z,48.06
2018-01-16T07:26:34.124Z,48.20
2018-01-16T07:27:36.617Z,48.18
2018-01-16T07:28:39.066Z,48.09
2018-01-16T07:29:41.554Z,48.32
2018-01-16T07:30:44.011Z,48.23
2018-01-16T07:31:46.466Z,48.25
2018-01-16T07:32:48.932Z,48.81
2018-01-16T07:33:51.400Z,49.15
2018-01-16T07:34:53.892Z,49.22
2018-01-16T07:35:56.355Z,49.21
2018-01-16T07:36:58.816Z,49.19
2018-01-16T07:38:01.270Z,49.01
2018-01-16T07:39:03.740Z,48.92
2018-01-16T07:40:06.217Z,48.92
2018-01-16T07:41:08.682Z,49.03
2018-01-16T07:42:11.151Z,48.98
2018-01-16T07:43:13.602Z,48.89
2018-01-16T07:44:16.068Z,49.02
2018-01-16T07:45:18.536Z,49.03
2018-01-16T07:46:21.001Z,48.86
2018-01-16T07:47:23.458Z,48.74
2018-01-16T07:48:25.919Z,48.61
2018-01-16T07:49:28.398Z,48.50
2018-01-16T07:50:30.884Z,48.53
2018-01-16T07:51:33.348Z,48.47
2018-01-16T07:52:35.798Z,48.46
2018-01-16T07:53:38.249Z,48.40
2018-01-16T07:54:40.715Z,48.21
2018-01-16T07:55:43.195Z,48.13
2018-01-16T07:56:45.645Z,48.16
2018-01-16T07:57:48.209Z,48.12
2018-01-16T07:58:50.666Z,48.15
2018-01-16T07:59:53.118Z,48.09
2018-01-16T08:00:55.652Z,48.01
2018-01-16T08:01:58.100Z,47.89
2018-01-16T08:03:00.564Z,47.78
2018-01-16T08:04:03.043Z,47.81
2018-01-16T08:05:05.510Z,47.78
2018-01-16T08:06:07.995Z,47.86
2018-01-16T08:07:10.463Z,47.85
2018-01-16T08:08:12.927Z,47.93
2018-01-16T08:09:15.388Z,48.55
2018-01-16T08:10:17.852Z,48.93
2018-01-16T08:11:20.335Z,48.90
2018-01-16T08:12:22.799Z,48.94
2018-01-16T08:13:25.253Z,48.81
2018-01-16T08:14:27.713Z,48.64
2018-01-16T08:15:30.175Z,48.69
2018-01-16T08:16:32.660Z,48.64
2018-01-16T08:17:35.124Z,48.59
2018-01-16T08:18:37.573Z,48.55
2018-01-16T08:19:40.118Z,48.48
2018-01-16T08:20:42.684Z,48.47
2018-01-16T08:21:45.176Z,48.63
2018-01-16T08:22:47.626Z,48.63
2018-01-16T08:23:50.095Z,49.14
2018-01-16T08:24:52.816Z,48.79
2018-01-16T08:25:55.274Z,48.57
2018-01-16T08:26:57.753Z,48.16
2018-01-16T08:28:00.210Z,48.08
2018-01-16T08:29:02.662Z,47.98
2018-01-16T08:30:05.188Z,47.97
2018-01-16T08:31:07.645Z,47.85
2018-01-16T08:32:10.128Z,47.68
2018-01-16T08:34:14.441Z,47.59
2018-01-16T08:35:16.940Z,48.11
2018-01-16T08:36:19.425Z,48.04
2018-01-16T08:37:21.979Z,47.71
2018-01-16T08:38:24.424Z,47.69
2018-01-16T08:39:26.879Z,47.76
2018-01-16T08:40:29.334Z,47.75
2018-01-16T08:41:31.821Z,47.85
2018-01-16T08:42:34.312Z,47.95
2018-01-16T08:43:36.765Z,48.55
2018-01-16T08:44:39.350Z,50.78
2018-01-16T08:45:41.797Z,51.32
2018-01-16T08:46:44.257Z,50.70
2018-01-16T08:47:46.729Z,47.97
2018-01-16T08:48:49.225Z,47.65
2018-01-16T08:49:51.665Z,47.00
2018-01-16T08:50:54.149Z,46.45
2018-01-16T08:51:56.594Z,46.41
2018-01-16T08:52:59.095Z,45.68
2018-01-16T08:54:01.600Z,45.60
2018-01-16T08:55:04.058Z,45.47
2018-01-16T08:56:06.528Z,45.44
2018-01-16T08:57:08.988Z,44.48
2018-01-16T08:58:11.524Z,44.47
2018-01-16T08:59:13.973Z,44.67
2018-01-16T09:00:16.422Z,44.07
2018-01-16T09:01:18.883Z,44.43
2018-01-16T09:02:21.352Z,44.23
2018-01-16T09:03:23.826Z,44.56
2018-01-16T09:04:26.288Z,44.41
2018-01-16T09:05:28.756Z,43.83
2018-01-16T09:06:31.232Z,44.04
2018-01-16T09:07:33.704Z,44.29
2018-01-16T09:08:36.182Z,44.17
2018-01-16T09:09:38.656Z,44.25
2018-01-16T09:10:41.127Z,44.28
2018-01-16T09:11:43.573Z,44.32
2018-01-16T09:12:46.036Z,44.20
2018-01-16T09:13:48.517Z,44.36
2018-01-16T09:14:50.981Z,44.43
2018-01-16T09:15:53.444Z,44.49
2018-01-16T09:16:55.905Z,44.68
2018-01-16T09:17:58.366Z,44.82
2018-01-16T09:19:00.838Z,44.84
2018-01-16T09:20:03.296Z,44.67
2018-01-16T09:21:05.767Z,44.47
2018-01-16T09:22:08.218Z,44.58
2018-01-16T09:23:10.721Z,44.80
2018-01-16T09:24:13.204Z,44.95
2018-01-16T09:25:15.653Z,44.96
2018-01-16T09:26:18.114Z,45.24
2018-01-16T09:27:20.588Z,45.32
2018-01-16T09:28:23.042Z,45.67
2018-01-16T09:29:25.518Z,45.68
2018-01-16T09:30:27.969Z,45.65
2018-01-16T09:31:30.418Z,45.74
2018-01-16T09:32:32.874Z,45.94
2018-01-16T09:33:35.340Z,46.13
2018-01-16T09:34:37.814Z,46.03
2018-01-16T09:35:40.270Z,45.88
2018-01-16T09:36:42.741Z,45.99
2018-01-16T09:37:45.208Z,45.83
2018-01-16T09:38:47.679Z,45.74
2018-01-16T09:39:50.157Z,45.94
2018-01-16T09:40:52.628Z,46.14
2018-01-16T09:41:55.089Z,46.43
2018-01-16T09:42:57.556Z,46.42
2018-01-16T09:44:00.024Z,46.36
2018-01-16T09:45:02.516Z,46.46
2018-01-16T09:46:05.001Z,46.44
2018-01-16T09:47:07.484Z,46.52
2018-01-16T09:48:09.946Z,46.55
2018-01-16T09:49:12.397Z,46.39
2018-01-16T09:50:14.884Z,46.06
2018-01-16T09:51:17.348Z,46.50
2018-01-16T09:52:19.823Z,46.10
2018-01-16T09:53:22.288Z,46.01
2018-01-16T09:54:24.752Z,46.41
2018-01-16T09:55:27.229Z,46.29
2018-01-16T09:56:29.724Z,46.14
2018-01-16T09:57:32.181Z,46.26
2018-01-16T09:58:34.642Z,46.40
2018-01-16T09:59:37.102Z,46.60
2018-01-16T10:00:39.596Z,46.69
2018-01-16T10:01:42.054Z,46.74
2018-01-16T10:02:44.532Z,46.80
2018-01-16T10:03:46.994Z,46.81
2018-01-16T10:04:49.472Z,46.84
2018-01-16T10:05:51.946Z,46.86
2018-01-16T10:06:54.424Z,46.85
2018-01-16T10:07:56.895Z,46.87
2018-01-16T10:08:59.367Z,46.99
2018-01-16T10:10:01.823Z,47.02
2018-01-16T10:11:04.298Z,47.00
2018-01-16T10:12:06.766Z,47.09
2018-01-16T10:13:09.256Z,47.12
2018-01-16T10:14:11.718Z,47.18
2018-01-16T10:15:14.220Z,47.26
2018-01-16T10:16:16.693Z,47.31
2018-01-16T10:17:19.151Z,47.38
2018-01-16T10:18:21.614Z,47.44
2018-01-16T10:19:24.089Z,47.49
2018-01-16T10:20:26.546Z,47.54
2018-01-16T10:21:29.041Z,47.57
2018-01-16T10:22:31.507Z,47.63
2018-01-16T10:23:33.972Z,47.69
2018-01-16T10:24:36.489Z,47.94
2018-01-16T10:25:38.944Z,48.00
2018-01-16T10:26:41.429Z,48.08
2018-01-16T10:27:43.904Z,48.13
2018-01-16T10:28:46.372Z,48.13
2018-01-16T10:29:48.875Z,48.26
2018-01-16T10:30:51.352Z,48.14
2018-01-16T10:31:53.839Z,47.97
2018-01-16T10:32:56.303Z,48.30
2018-01-16T10:33:58.757Z,48.13
2018-01-16T10:35:01.265Z,48.39
2018-01-16T10:36:03.722Z,48.30
2018-01-16T10:37:06.220Z,48.41
2018-01-16T10:38:08.701Z,48.55
2018-01-16T10:39:11.158Z,48.68
2018-01-16T10:40:13.613Z,48.83
2018-01-16T10:41:16.083Z,48.77
2018-01-16T10:42:18.581Z,48.71
2018-01-16T10:43:21.046Z,48.74
2018-01-16T10:44:23.523Z,48.73
2018-01-16T10:45:25.996Z,48.70
2018-01-16T10:46:28.468Z,48.66
2018-01-16T10:47:30.984Z,48.65
2018-01-16T10:48:33.523Z,48.61
2018-01-16T10:49:35.999Z,48.57
2018-01-16T10:50:38.462Z,48.60
2018-01-16T10:51:40.928Z,48.55
2018-01-16T10:52:43.420Z,48.49
2018-01-16T10:53:45.869Z,48.39
2018-01-16T10:54:48.350Z,48.34
2018-01-16T10:55:50.815Z,48.33
2018-01-16T10:56:53.290Z,48.27
2018-01-16T10:57:55.778Z,48.24
2018-01-16T10:58:58.305Z,48.11
2018-01-16T11:00:00.777Z,48.03
2018-01-16T11:01:03.233Z,47.98
2018-01-16T11:02:05.708Z,48.01
2018-01-16T11:03:08.229Z,48.04
2018-01-16T11:04:10.695Z,48.05
2018-01-16T11:05:13.168Z,48.04
2018-01-16T11:06:15.630Z,48.01
2018-01-16T11:07:18.090Z,48.00
2018-01-16T11:08:20.590Z,47.96
2018-01-16T11:09:23.041Z,47.93
2018-01-16T11:10:25.493Z,47.93
2018-01-16T11:11:27.946Z,47.90
2018-01-16T11:12:30.424Z,47.88
2018-01-16T11:13:32.893Z,47.81
2018-01-16T11:14:35.342Z,47.83
2018-01-16T11:15:37.795Z,47.83
2018-01-16T11:16:40.242Z,47.82
2018-01-16T11:17:42.714Z,47.82
2018-01-16T11:18:45.195Z,47.84
2018-01-16T11:19:47.662Z,47.82
2018-01-16T11:20:50.114Z,47.82
2018-01-16T11:21:52.591Z,47.71
2018-01-16T11:22:55.110Z,47.58
2018-01-16T11:23:57.590Z,47.65
2018-01-16T11:25:00.047Z,47.71
2018-01-16T11:26:02.528Z,47.70
2018-01-16T11:27:04.996Z,47.74
2018-01-16T11:28:07.472Z,47.74
2018-01-16T11:29:09.945Z,47.75
2018-01-16T11:30:12.398Z,47.72
2018-01-16T11:31:14.849Z,47.67
2018-01-16T11:32:17.299Z,47.66
2018-01-16T11:33:19.764Z,47.64
2018-01-16T11:34:22.252Z,47.67
2018-01-16T11:35:24.706Z,47.70
2018-01-16T11:36:27.157Z,47.62
2018-01-16T11:37:29.610Z,47.58
2018-01-16T11:38:32.085Z,47.53
2018-01-16T11:39:34.589Z,47.51
2018-01-16T11:40:37.038Z,47.51
2018-01-16T11:41:39.512Z,47.52
2018-01-16T11:42:41.975Z,47.55
2018-01-16T11:43:44.426Z,47.60
2018-01-16T11:44:46.912Z,47.64
2018-01-16T11:45:49.362Z,47.53
2018-01-16T11:46:51.828Z,47.54
2018-01-16T11:47:54.282Z,47.57
2018-01-16T11:48:56.752Z,47.55
2018-01-16T11:49:59.226Z,47.55
2018-01-16T11:51:01.692Z,47.65
2018-01-16T11:52:04.209Z,47.63
2018-01-16T11:53:06.711Z,47.62
2018-01-16T11:54:09.231Z,47.60
2018-01-16T11:55:11.720Z,47.61
2018-01-16T11:56:14.170Z,47.59
2018-01-16T11:57:16.652Z,47.53
2018-01-16T11:58:19.102Z,47.58
2018-01-16T11:59:21.554Z,47.50
2018-01-16T12:00:24.029Z,47.46
2018-01-16T12:01:26.492Z,47.56
2018-01-16T12:02:29.017Z,47.59
2018-01-16T12:03:31.430Z,47.57
2018-01-16T12:04:33.886Z,47.57
2018-01-16T12:05:36.396Z,47.53
2018-01-16T12:06:38.850Z,47.45
2018-01-16T12:07:41.375Z,47.46
2018-01-16T12:08:43.821Z,47.41
2018-01-16T12:09:46.292Z,47.41
2018-01-16T12:10:48.758Z,47.40
2018-01-16T12:11:51.222Z,47.37
2018-01-16T12:12:53.684Z,47.37
2018-01-16T12:13:56.134Z,47.36
2018-01-16T12:14:58.600Z,47.33
2018-01-16T12:16:01.075Z,47.26
2018-01-16T12:17:03.521Z,47.26
2018-01-16T12:18:05.974Z,47.27
2018-01-16T12:19:08.444Z,47.30
2018-01-16T12:20:10.913Z,47.28
2018-01-16T12:21:13.406Z,47.37
2018-01-16T12:22:15.862Z,47.40
2018-01-16T12:23:18.314Z,47.36
2018-01-16T12:24:20.784Z,47.36
2018-01-16T12:25:23.238Z,47.37
2018-01-16T12:26:25.710Z,47.30
2018-01-16T12:27:28.163Z,47.26
2018-01-16T12:28:30.628Z,47.33
2018-01-16T12:29:33.077Z,47.38
2018-01-16T12:30:35.548Z,47.35
2018-01-16T12:31:38.044Z,47.33
2018-01-16T12:32:40.512Z,47.41
2018-01-16T12:33:42.988Z,47.41
2018-01-16T12:34:45.442Z,47.40
2018-01-16T12:35:47.894Z,47.34
2018-01-16T12:36:50.378Z,47.35
2018-01-16T12:37:52.842Z,47.34
2018-01-16T12:38:55.304Z,47.38
2018-01-16T12:39:57.767Z,47.47
2018-01-16T12:41:00.225Z,47.41
2018-01-16T12:42:02.705Z,47.44
2018-01-16T12:43:05.175Z,47.46
2018-01-16T12:44:07.653Z,47.44
2018-01-16T12:45:10.124Z,47.40
2018-01-16T12:46:12.579Z,47.45
2018-01-16T12:47:15.068Z,47.46
2018-01-16T12:48:17.522Z,47.39
2018-01-16T12:49:19.974Z,47.34
2018-01-16T12:50:22.426Z,47.32
2018-01-16T12:51:24.878Z,47.43
2018-01-16T12:52:27.350Z,47.44
2018-01-16T12:53:29.819Z,47.38
2018-01-16T12:54:32.283Z,47.36
2018-01-16T12:55:34.748Z,47.41
2018-01-16T12:56:37.202Z,47.34
2018-01-16T12:57:39.702Z,47.36
2018-01-16T12:58:42.176Z,47.39
2018-01-16T12:59:44.630Z,47.35
2018-01-16T13:00:47.090Z,47.37
2018-01-16T13:01:49.546Z,47.44
2018-01-16T13:02:52.036Z,47.33
2018-01-16T13:03:54.500Z,47.27
2018-01-16T13:04:56.984Z,47.30
2018-01-16T13:05:59.471Z,47.33
2018-01-16T13:07:01.941Z,47.31
2018-01-16T13:08:04.444Z,47.35
2018-01-16T13:09:06.890Z,47.34
2018-01-16T13:10:09.352Z,47.31
2018-01-16T13:11:11.822Z,47.28
2018-01-16T13:12:14.273Z,47.36
2018-01-16T13:13:16.767Z,47.35
2018-01-16T13:14:19.240Z,47.34
2018-01-16T13:15:21.693Z,47.33
2018-01-16T13:16:24.145Z,47.30
2018-01-16T13:17:26.607Z,47.39
2018-01-16T13:18:29.082Z,47.31
2018-01-16T13:19:31.529Z,47.42
2018-01-16T13:20:33.992Z,47.40
2018-01-16T13:21:36.460Z,47.37
2018-01-16T13:22:38.928Z,47.42
2018-01-16T13:23:41.402Z,47.43
2018-01-16T13:24:43.873Z,47.35
2018-01-16T13:25:46.326Z,47.35